Восточный

Карта отелей и гостиниц, располагающихся рядом с аэропортом Восточный :

Восточный
Курск
Курская область 51° 45' 1.98" N, 36° 17' 44.7612" E
Код аэродрома ИКАО: 
UUOK
Код аэродрома RU: 
УУОК
Координаты: 
N51.75055° E036.29577°
Превышение над уровнем моря : 
206
Основная полоса: 
12/30
Курс магнитный: 
116/296
Длина основной ВПП: 
2500
Ширина основной ВПП: 
40
Покрытие основной ВПП: 
Твёрдое (бетон)
Тип: 
Аэродром
Освещение ВПП: 
Постоянное
Класс аэродрома: 
Международный
Статус: 
Действующий
Принадлежность: 
МО
Страна: 
Россия
Регион: 
Курская область
Город: 
Курск
Дополнительная информация: 
Оператор: ВКС России. Совместного использования (МОРФ и ФАВТ). ГВПП (1800x85м) в рабочем состоянии не поддерживается. Нкр.=(400)м. ВПП-06/24 построена во время ВОВ немцами, по назначению не используется. Военный индекс: XUOK / ЬУОК.
Погода: 

Авиационная погода в Курске

Погода METAR: 
UUOK 110330Z VRB01MPS CAVOK 13/11 Q1014 R30/CLRD65 NOSIG RMK QFE742/0989
Время наблюдения: 
2020-08-11T03:30:00Z
Температура C: 
13.0
Точка росы: 
11.0
Направление ветра: 
0
Скорость ветра: 
2
Метеорологическая видимость: 
6.21
Условия полета: 
VFR
Аэропорт подробнее: 

Найти трансфер

С помощью этой формы Вы можете найти трансфер из аэропорта Восточный в город, аэропорт или вокзал:

Карта места

Javascript is required to view this map.

Погода в аэропортах:

Авиационная погода в Москве - Остафьево

Регион: 
Погода METAR: 
UUMO 110330Z 31003MPS 9000 -SHRA BKN033CB 17/17 Q1013 R26/090060 NOSIG RMK QFE744/0992
Время наблюдения: 
2020-08-11T03:30:00Z
Температура C: 
17.0
Точка росы: 
17.0
Направление ветра: 
310
Скорость ветра: 
6
Метеорологическая видимость: 
5.59
Явления погоды: 
-SHRA
Условия полета: 
VFR
Аэропорт подробнее: 

Авиационная погода в Челябинске

Регион: 
Погода METAR: 
USCC 110330Z 33006MPS 1900 DZ BR OVC004 14/14 Q0996 R27/290050 NOSIG RMK QFE727
Время наблюдения: 
2020-08-11T03:30:00Z
Температура C: 
14.0
Точка росы: 
14.0
Направление ветра: 
330
Скорость ветра: 
12
Метеорологическая видимость: 
1.18
Явления погоды: 
DZ BR
Условия полета: 
LIFR
Аэропорт подробнее: 

Авиационная погода в Екатеринбурге

Регион: 
Погода METAR: 
USSS 110330Z 34006MPS 7000 -RA OVC007 12/12 Q0999 R26R/290035 NOSIG RMK QFE729/0972
Время наблюдения: 
2020-08-11T03:30:00Z
Температура C: 
12.0
Точка росы: 
12.0
Направление ветра: 
340
Скорость ветра: 
12
Метеорологическая видимость: 
4.35
Явления погоды: 
-RA
Условия полета: 
IFR
Аэропорт подробнее: 

Авиационная погода в Сочи

Регион: 
Погода METAR: 
URSS 110330Z 06003MPS 9999 VCTS BKN040CB 21/19 Q1008 WS ALL RWY R02/290257 R06/290361 NOSIG RMK R06/07004MPS MT OBSC QFE754
Время наблюдения: 
2020-08-11T03:30:00Z
Температура C: 
21.0
Точка росы: 
19.0
Направление ветра: 
60
Скорость ветра: 
6
Метеорологическая видимость: 
6.21
Явления погоды: 
VCTS
Условия полета: 
VFR
Аэропорт подробнее: